createdAt,value
2022-12-29T00:00:04.254Z,21.7
2022-12-29T00:01:04.323Z,21.7
2022-12-29T00:02:04.271Z,21.7
2022-12-29T00:03:04.359Z,21.7
2022-12-29T00:04:04.336Z,21.7
2022-12-29T00:05:04.241Z,21.7
2022-12-29T00:06:04.257Z,21.7
2022-12-29T00:07:04.212Z,21.7
2022-12-29T00:08:04.244Z,21.7
2022-12-29T00:09:04.267Z,21.6
2022-12-29T00:10:04.273Z,21.6
2022-12-29T00:11:04.338Z,21.6
2022-12-29T00:12:04.294Z,21.7
2022-12-29T00:13:04.252Z,21.7
2022-12-29T00:14:04.323Z,21.7
2022-12-29T00:15:04.263Z,21.6
2022-12-29T00:16:04.334Z,21.6
2022-12-29T00:17:04.225Z,21.6
2022-12-29T00:18:30.702Z,21.5
2022-12-29T00:19:04.409Z,21.6
2022-12-29T00:20:04.445Z,21.6
2022-12-29T00:21:04.464Z,21.6
2022-12-29T00:22:04.397Z,21.6
2022-12-29T00:23:04.434Z,21.6
2022-12-29T00:24:04.399Z,21.6
2022-12-29T00:25:04.457Z,21.6
2022-12-29T00:26:04.438Z,21.5
2022-12-29T00:27:04.457Z,21.5
2022-12-29T00:28:07.607Z,21.5
2022-12-29T00:29:04.521Z,21.5
2022-12-29T00:30:04.433Z,21.5
2022-12-29T00:31:04.520Z,21.5
2022-12-29T00:32:04.469Z,21.5
2022-12-29T00:33:04.519Z,21.4
2022-12-29T00:34:04.400Z,21.4
2022-12-29T00:35:04.438Z,21.4
2022-12-29T00:36:04.420Z,21.4
2022-12-29T00:37:04.475Z,21.4
2022-12-29T00:38:04.389Z,21.4
2022-12-29T00:39:04.491Z,21.4
2022-12-29T00:40:04.401Z,21.4
2022-12-29T00:41:04.454Z,21.4
2022-12-29T00:42:04.398Z,21.4
2022-12-29T00:43:04.475Z,21.4
2022-12-29T00:44:04.443Z,21.4
2022-12-29T00:45:04.462Z,21.4
2022-12-29T00:46:04.495Z,21.4
2022-12-29T00:47:04.469Z,21.4
2022-12-29T00:48:04.446Z,21.4
2022-12-29T00:49:04.417Z,21.3
2022-12-29T00:50:04.405Z,21.3
2022-12-29T00:51:04.553Z,21.2
2022-12-29T00:52:04.413Z,21.2
2022-12-29T00:53:04.431Z,21.2
2022-12-29T00:54:04.417Z,21.2
2022-12-29T00:55:04.426Z,21.1
2022-12-29T00:56:04.515Z,21.1
2022-12-29T00:57:04.585Z,21.1
2022-12-29T00:58:06.028Z,21.1
2022-12-29T00:59:04.494Z,21.0
2022-12-29T01:00:04.484Z,21.0
2022-12-29T01:01:04.540Z,21.0
2022-12-29T01:04:00.136Z,20.7
2022-12-29T01:04:06.158Z,20.7
2022-12-29T01:05:05.108Z,20.9
2022-12-29T01:06:04.373Z,20.9
2022-12-29T01:07:04.340Z,20.9
2022-12-29T01:08:04.329Z,20.9
2022-12-29T01:09:04.367Z,20.9
2022-12-29T01:10:04.356Z,20.8
2022-12-29T01:11:04.439Z,20.8
2022-12-29T01:12:04.359Z,20.8
2022-12-29T01:13:04.359Z,20.8
2022-12-29T01:14:04.345Z,20.8
2022-12-29T01:15:04.362Z,20.8
2022-12-29T01:16:04.416Z,20.8
2022-12-29T01:17:04.306Z,20.7
2022-12-29T01:18:04.356Z,20.7
2022-12-29T01:19:04.355Z,20.7
2022-12-29T01:20:04.372Z,20.7
2022-12-29T01:21:04.365Z,20.7
2022-12-29T01:22:04.375Z,20.7
2022-12-29T01:23:04.373Z,20.6
2022-12-29T01:24:05.438Z,20.6
2022-12-29T01:25:04.399Z,20.6
2022-12-29T01:26:04.347Z,20.6
2022-12-29T01:27:04.590Z,20.6
2022-12-29T01:28:04.404Z,20.6
2022-12-29T01:29:04.362Z,20.5
2022-12-29T01:30:04.342Z,20.5
2022-12-29T01:31:04.500Z,20.5
2022-12-29T01:32:04.511Z,20.5
2022-12-29T01:33:04.538Z,20.5
2022-12-29T01:34:04.404Z,20.5
2022-12-29T01:35:04.311Z,20.5
2022-12-29T01:36:04.364Z,20.5
2022-12-29T01:37:04.361Z,20.5
2022-12-29T01:38:04.341Z,20.5
2022-12-29T01:39:04.421Z,20.4
2022-12-29T01:40:04.345Z,20.4
2022-12-29T01:41:04.336Z,20.4
2022-12-29T01:42:04.338Z,20.4
2022-12-29T01:43:04.320Z,20.4
2022-12-29T01:44:04.364Z,20.4
2022-12-29T01:45:04.401Z,20.4
2022-12-29T01:46:04.400Z,20.4
2022-12-29T01:47:04.309Z,20.3
2022-12-29T01:48:04.343Z,20.3
2022-12-29T01:49:04.356Z,20.3
2022-12-29T01:50:04.379Z,20.3
2022-12-29T01:51:04.370Z,20.3
2022-12-29T01:52:04.327Z,20.3
2022-12-29T01:53:04.572Z,20.3
2022-12-29T01:54:04.339Z,20.3
2022-12-29T01:55:04.448Z,20.3
2022-12-29T01:56:04.361Z,20.3
2022-12-29T01:57:04.436Z,20.3
2022-12-29T01:58:04.392Z,20.2
2022-12-29T01:59:04.321Z,20.2
2022-12-29T02:00:04.400Z,20.2
2022-12-29T02:01:04.357Z,20.2
2022-12-29T02:02:04.430Z,20.2
2022-12-29T02:03:04.465Z,20.2
2022-12-29T02:04:04.353Z,20.2
2022-12-29T02:06:07.821Z,20.2
2022-12-29T02:06:11.955Z,19.9
2022-12-29T02:07:04.350Z,20.1
2022-12-29T02:08:05.473Z,20.1
2022-12-29T02:09:04.442Z,20.1
2022-12-29T02:10:04.385Z,20.1
2022-12-29T02:11:04.399Z,20.1
2022-12-29T02:12:04.425Z,20.1
2022-12-29T02:13:04.433Z,20.1
2022-12-29T02:14:04.302Z,20.1
2022-12-29T02:15:04.496Z,20.1
2022-12-29T02:16:04.489Z,20.1
2022-12-29T02:17:04.379Z,20.1
2022-12-29T02:18:04.366Z,20.1
2022-12-29T02:19:04.343Z,20.0
2022-12-29T02:20:04.370Z,20.0
2022-12-29T02:21:04.436Z,20.0
2022-12-29T02:22:04.344Z,20.0
2022-12-29T02:23:04.654Z,20.0
2022-12-29T02:24:04.349Z,20.0
2022-12-29T02:25:04.381Z,20.0
2022-12-29T02:26:04.352Z,20.0
2022-12-29T02:27:04.415Z,20.0
2022-12-29T02:28:04.346Z,20.0
2022-12-29T02:29:04.365Z,20.0
2022-12-29T02:30:04.379Z,20.0
2022-12-29T02:31:04.427Z,19.9
2022-12-29T02:32:04.437Z,19.9
2022-12-29T02:33:04.478Z,19.9
2022-12-29T02:34:04.320Z,19.9
2022-12-29T02:35:04.418Z,19.9
2022-12-29T02:36:04.365Z,19.9
2022-12-29T02:37:04.397Z,19.9
2022-12-29T02:38:04.365Z,19.9
2022-12-29T02:39:04.440Z,19.9
2022-12-29T02:40:11.133Z,19.8
2022-12-29T02:41:03.825Z,19.9
2022-12-29T02:42:04.560Z,19.9
2022-12-29T02:43:10.613Z,19.8
2022-12-29T02:44:06.136Z,19.8
2022-12-29T02:45:04.316Z,19.8
2022-12-29T02:46:04.360Z,19.8
2022-12-29T02:47:10.961Z,19.8
2022-12-29T02:48:03.747Z,19.8
2022-12-29T02:49:03.942Z,19.8
2022-12-29T02:50:03.689Z,19.8
2022-12-29T02:51:03.784Z,19.8
2022-12-29T02:52:03.725Z,19.8
2022-12-29T02:53:10.678Z,19.7
2022-12-29T02:54:04.107Z,19.8
2022-12-29T02:55:04.827Z,19.8
2022-12-29T02:56:04.097Z,19.8
2022-12-29T02:57:04.164Z,19.8
2022-12-29T02:58:04.163Z,19.8
2022-12-29T02:59:04.150Z,19.8
2022-12-29T03:00:04.082Z,19.8
2022-12-29T03:01:04.236Z,19.8
2022-12-29T03:02:04.562Z,19.7
2022-12-29T03:03:04.257Z,19.7
2022-12-29T03:04:04.169Z,19.7
2022-12-29T03:05:04.150Z,19.7
2022-12-29T03:06:04.087Z,19.7
2022-12-29T03:07:04.187Z,19.7
2022-12-29T03:08:04.136Z,19.7
2022-12-29T03:09:04.120Z,19.7
2022-12-29T03:10:04.295Z,19.7
2022-12-29T03:11:04.216Z,19.7
2022-12-29T03:12:04.081Z,19.7
2022-12-29T03:13:04.129Z,19.7
2022-12-29T03:14:04.142Z,19.7
2022-12-29T03:15:04.215Z,19.7
2022-12-29T03:16:04.246Z,19.7
2022-12-29T03:17:04.203Z,19.7
2022-12-29T03:18:04.126Z,19.7
2022-12-29T03:19:04.131Z,19.6
2022-12-29T03:20:04.389Z,19.6
2022-12-29T03:21:04.119Z,19.6
2022-12-29T03:22:04.160Z,19.6
2022-12-29T03:23:04.137Z,19.6
2022-12-29T03:24:04.136Z,19.6
2022-12-29T03:25:04.107Z,19.6
2022-12-29T03:26:04.185Z,19.6
2022-12-29T03:27:04.137Z,19.6
2022-12-29T03:28:04.112Z,19.6
2022-12-29T03:29:04.151Z,19.6
2022-12-29T03:30:04.099Z,19.6
2022-12-29T03:31:04.182Z,19.6
2022-12-29T03:32:04.141Z,19.6
2022-12-29T03:33:04.148Z,19.6
2022-12-29T03:34:04.152Z,19.6
2022-12-29T03:35:04.147Z,19.6
2022-12-29T03:36:04.092Z,19.6
2022-12-29T03:37:04.233Z,19.6
2022-12-29T03:38:04.171Z,19.6
2022-12-29T03:39:04.125Z,19.6
2022-12-29T03:40:04.111Z,19.6
2022-12-29T03:41:04.142Z,19.6
2022-12-29T03:42:04.140Z,19.6
2022-12-29T03:43:04.415Z,19.6
2022-12-29T03:45:54.347Z,19.3
2022-12-29T03:46:04.106Z,19.3
2022-12-29T03:47:04.068Z,19.5
2022-12-29T03:48:04.128Z,19.5
2022-12-29T03:49:04.049Z,19.5
2022-12-29T03:50:04.113Z,19.5
2022-12-29T03:51:04.056Z,19.5
2022-12-29T03:52:04.099Z,19.5
2022-12-29T03:53:04.055Z,19.5
2022-12-29T03:54:04.089Z,19.5
2022-12-29T03:55:04.035Z,19.5
2022-12-29T03:56:04.071Z,19.5
2022-12-29T03:57:04.117Z,19.5
2022-12-29T03:58:04.043Z,19.5
2022-12-29T03:59:04.060Z,19.5
2022-12-29T04:00:04.102Z,19.5
2022-12-29T04:01:04.067Z,19.5
2022-12-29T04:02:04.236Z,19.5
2022-12-29T04:03:04.138Z,19.5
2022-12-29T04:04:04.092Z,19.5
2022-12-29T04:05:04.768Z,19.5
2022-12-29T04:06:04.084Z,19.5
2022-12-29T04:07:04.113Z,19.5
2022-12-29T04:08:04.119Z,19.4
2022-12-29T04:09:04.035Z,19.4
2022-12-29T04:10:04.074Z,19.4
2022-12-29T04:11:04.018Z,19.4
2022-12-29T04:12:04.056Z,19.4
2022-12-29T04:13:04.091Z,19.4
2022-12-29T04:14:04.151Z,19.4
2022-12-29T04:15:04.040Z,19.4
2022-12-29T04:16:04.146Z,19.4
2022-12-29T04:17:04.047Z,19.4
2022-12-29T04:18:04.036Z,19.4
2022-12-29T04:19:04.105Z,19.4
2022-12-29T04:20:04.146Z,19.4
2022-12-29T04:21:04.054Z,19.4
2022-12-29T04:22:04.307Z,19.4
2022-12-29T04:23:04.324Z,19.4
2022-12-29T04:24:04.056Z,19.4
2022-12-29T04:25:04.048Z,19.4
2022-12-29T04:26:04.120Z,19.4
2022-12-29T04:27:04.022Z,19.4
2022-12-29T04:28:04.120Z,19.4
2022-12-29T04:29:04.045Z,19.4
2022-12-29T04:30:04.088Z,19.4
2022-12-29T04:31:04.068Z,19.4
2022-12-29T04:32:04.168Z,19.4
2022-12-29T04:33:04.065Z,19.4
2022-12-29T04:36:29.676Z,19.0
2022-12-29T04:37:04.014Z,19.2
2022-12-29T04:38:04.035Z,19.3
2022-12-29T04:39:03.991Z,19.3
2022-12-29T04:40:04.019Z,19.3
2022-12-29T04:41:03.983Z,19.3
2022-12-29T04:42:03.976Z,19.3
2022-12-29T04:43:03.939Z,19.3
2022-12-29T04:44:04.050Z,19.3
2022-12-29T04:45:04.018Z,19.3
2022-12-29T04:46:04.071Z,19.3
2022-12-29T04:47:04.012Z,19.3
2022-12-29T04:48:04.333Z,19.3
2022-12-29T04:49:03.972Z,19.3
2022-12-29T04:50:04.057Z,19.3
2022-12-29T04:51:03.945Z,19.3
2022-12-29T04:52:04.652Z,19.3
2022-12-29T04:53:03.965Z,19.3
2022-12-29T04:54:04.017Z,19.3
2022-12-29T04:55:03.984Z,19.3
2022-12-29T04:56:04.113Z,19.3
2022-12-29T04:57:03.969Z,19.3
2022-12-29T04:58:04.005Z,19.4
2022-12-29T04:59:03.982Z,19.5
2022-12-29T05:00:03.968Z,19.5
2022-12-29T05:01:04.900Z,19.6
2022-12-29T05:02:04.111Z,19.7
2022-12-29T05:03:04.205Z,19.8
2022-12-29T05:04:04.022Z,19.9
2022-12-29T05:05:03.943Z,19.9
2022-12-29T05:06:04.004Z,19.9
2022-12-29T05:07:04.018Z,19.9
2022-12-29T05:08:04.400Z,19.9
2022-12-29T05:09:03.966Z,20.0
2022-12-29T05:10:03.972Z,20.0
2022-12-29T05:11:04.005Z,20.0
2022-12-29T05:12:04.949Z,20.1
2022-12-29T05:13:03.960Z,20.1
2022-12-29T05:14:04.301Z,20.2
2022-12-29T05:15:04.014Z,20.2
2022-12-29T05:16:04.039Z,20.3
2022-12-29T05:17:04.009Z,20.3
2022-12-29T05:18:04.068Z,20.4
2022-12-29T05:19:03.983Z,20.4
2022-12-29T05:20:04.058Z,20.4
2022-12-29T05:21:03.963Z,20.5
2022-12-29T05:22:04.138Z,20.5
2022-12-29T05:23:30.422Z,20.4
2022-12-29T05:24:04.137Z,20.5
2022-12-29T05:25:05.148Z,20.6
2022-12-29T05:26:04.200Z,20.7
2022-12-29T05:27:04.945Z,20.8
2022-12-29T05:28:04.145Z,20.8
2022-12-29T05:29:04.171Z,20.9
2022-12-29T05:30:04.167Z,21.0
2022-12-29T05:31:04.226Z,21.0
2022-12-29T05:32:04.422Z,21.1
2022-12-29T05:33:04.149Z,21.1
2022-12-29T05:34:04.130Z,21.1
2022-12-29T05:35:04.212Z,21.2
2022-12-29T05:36:04.147Z,21.2
2022-12-29T05:37:04.172Z,21.3
2022-12-29T05:38:04.180Z,21.3
2022-12-29T05:39:04.191Z,21.3
2022-12-29T05:40:04.375Z,21.4
2022-12-29T05:41:04.165Z,21.4
2022-12-29T05:42:04.139Z,21.4
2022-12-29T05:43:04.154Z,21.5
2022-12-29T05:44:04.295Z,21.5
2022-12-29T05:45:04.166Z,21.5
2022-12-29T05:46:04.183Z,21.6
2022-12-29T05:47:04.248Z,21.6
2022-12-29T05:48:04.168Z,21.7
2022-12-29T05:49:04.149Z,21.7
2022-12-29T05:50:04.180Z,21.8
2022-12-29T05:51:04.162Z,21.8
2022-12-29T05:52:04.157Z,21.8
2022-12-29T05:53:04.176Z,21.9
2022-12-29T05:54:04.178Z,21.9
2022-12-29T05:55:04.116Z,21.9
2022-12-29T05:56:04.211Z,21.9
2022-12-29T05:57:04.182Z,22.0
2022-12-29T05:58:04.152Z,22.0
2022-12-29T05:59:04.158Z,22.0
2022-12-29T06:00:04.182Z,22.0
2022-12-29T06:01:04.416Z,22.1
2022-12-29T06:02:04.453Z,22.1
2022-12-29T06:03:04.405Z,22.1
2022-12-29T06:04:04.232Z,22.1
2022-12-29T06:05:04.155Z,22.1
2022-12-29T06:06:04.216Z,22.2
2022-12-29T06:07:04.150Z,22.2
2022-12-29T06:08:04.296Z,22.2
2022-12-29T06:09:04.132Z,22.2
2022-12-29T06:10:04.210Z,22.2
2022-12-29T06:11:04.177Z,22.3
2022-12-29T06:12:04.194Z,22.3
2022-12-29T06:13:04.170Z,22.3
2022-12-29T06:14:04.232Z,22.3
2022-12-29T06:15:04.138Z,22.3
2022-12-29T06:16:04.219Z,22.3
2022-12-29T06:17:04.118Z,22.3
2022-12-29T06:18:04.153Z,22.4
2022-12-29T06:19:04.122Z,22.4
2022-12-29T06:20:04.181Z,22.4
2022-12-29T06:21:04.123Z,22.4
2022-12-29T06:22:04.158Z,22.4
2022-12-29T06:23:04.120Z,22.4
2022-12-29T06:24:04.152Z,22.4
2022-12-29T06:25:05.431Z,22.3
2022-12-29T06:26:04.188Z,22.2
2022-12-29T06:27:04.136Z,22.1
2022-12-29T06:28:04.174Z,22.1
2022-12-29T06:29:04.146Z,22.1
2022-12-29T06:30:04.159Z,22.0
2022-12-29T06:31:04.120Z,22.0
2022-12-29T06:32:04.203Z,21.9
2022-12-29T06:33:04.132Z,21.9
2022-12-29T06:34:08.115Z,21.9
2022-12-29T06:35:04.120Z,21.9
2022-12-29T06:36:04.157Z,21.9
2022-12-29T06:37:04.122Z,21.9
2022-12-29T06:38:04.167Z,21.8
2022-12-29T06:39:34.107Z,21.8
2022-12-29T06:40:04.160Z,21.8
2022-12-29T06:41:04.142Z,21.8
2022-12-29T06:42:04.189Z,21.8
2022-12-29T06:43:04.135Z,21.8
2022-12-29T06:44:05.565Z,21.8
2022-12-29T06:45:05.063Z,21.8
2022-12-29T06:46:04.205Z,21.8
2022-12-29T06:47:04.129Z,21.8
2022-12-29T06:48:04.153Z,21.8
2022-12-29T06:49:04.143Z,21.8
2022-12-29T06:50:04.188Z,21.9
2022-12-29T06:51:04.127Z,21.9
2022-12-29T06:52:07.569Z,21.9
2022-12-29T06:53:04.338Z,21.9
2022-12-29T06:54:04.152Z,22.0
2022-12-29T06:55:04.139Z,22.1
2022-12-29T06:56:04.178Z,22.2
2022-12-29T06:57:04.123Z,22.2
2022-12-29T06:58:04.154Z,22.3
2022-12-29T06:59:04.161Z,22.3
2022-12-29T07:00:04.151Z,22.3
2022-12-29T07:01:04.220Z,22.3
2022-12-29T07:02:04.463Z,22.4
2022-12-29T07:03:04.263Z,22.4
2022-12-29T07:04:04.175Z,22.4
2022-12-29T07:05:04.327Z,22.4
2022-12-29T07:06:04.176Z,22.5
2022-12-29T07:07:04.117Z,22.5
2022-12-29T07:08:04.210Z,22.5
2022-12-29T07:09:04.127Z,22.5
2022-12-29T07:10:04.211Z,22.5
2022-12-29T07:11:10.830Z,22.4
2022-12-29T07:12:04.586Z,22.5
2022-12-29T07:13:04.556Z,22.5
2022-12-29T07:14:04.610Z,22.5
2022-12-29T07:15:04.572Z,22.5
2022-12-29T07:16:04.602Z,22.5
2022-12-29T07:17:04.590Z,22.5
2022-12-29T07:18:04.611Z,22.4
2022-12-29T07:19:04.563Z,22.3
2022-12-29T07:20:04.615Z,22.3
2022-12-29T07:21:04.574Z,22.2
2022-12-29T07:22:04.592Z,22.2
2022-12-29T07:23:04.566Z,22.2
2022-12-29T07:24:04.591Z,22.1
2022-12-29T07:25:04.614Z,22.1
2022-12-29T07:26:04.609Z,22.1
2022-12-29T07:27:04.590Z,22.1
2022-12-29T07:28:04.594Z,22.1
2022-12-29T07:29:04.595Z,22.1
2022-12-29T07:30:04.617Z,22.2
2022-12-29T07:31:04.594Z,22.3
2022-12-29T07:32:04.645Z,22.3
2022-12-29T07:33:04.585Z,22.4
2022-12-29T07:34:04.584Z,22.5
2022-12-29T07:35:04.587Z,22.6
2022-12-29T07:36:04.587Z,22.6
2022-12-29T07:37:04.613Z,22.7
2022-12-29T07:38:04.595Z,22.7
2022-12-29T07:39:04.569Z,22.7
2022-12-29T07:40:04.608Z,22.8
2022-12-29T07:41:04.568Z,22.8
2022-12-29T07:42:05.258Z,22.9
2022-12-29T07:43:04.619Z,22.9
2022-12-29T07:44:04.602Z,23.0
2022-12-29T07:45:04.574Z,23.0
2022-12-29T07:46:04.645Z,23.0
2022-12-29T07:47:04.612Z,23.0
2022-12-29T07:48:04.617Z,23.0
2022-12-29T07:49:04.637Z,23.0
2022-12-29T07:50:04.624Z,23.0
2022-12-29T07:51:04.596Z,23.0
2022-12-29T07:52:04.590Z,23.0
2022-12-29T07:53:04.619Z,23.0
2022-12-29T07:54:04.568Z,23.1
2022-12-29T07:55:04.621Z,23.1
2022-12-29T07:56:04.570Z,23.1
2022-12-29T07:57:04.595Z,23.2
2022-12-29T07:58:04.585Z,23.2
2022-12-29T07:59:04.604Z,23.2
2022-12-29T08:00:04.592Z,23.2
2022-12-29T08:01:04.674Z,23.2
2022-12-29T08:02:04.688Z,23.2
2022-12-29T08:03:04.595Z,23.2
2022-12-29T08:04:04.631Z,23.2
2022-12-29T08:05:04.601Z,23.3
2022-12-29T08:06:04.577Z,23.3
2022-12-29T08:07:04.653Z,23.3
2022-12-29T08:08:04.578Z,23.4
2022-12-29T08:10:16.904Z,23.4
2022-12-29T08:10:20.887Z,23.2
2022-12-29T08:11:04.617Z,23.4
2022-12-29T08:12:04.582Z,23.5
2022-12-29T08:13:04.646Z,23.6
2022-12-29T08:14:04.580Z,23.6
2022-12-29T08:15:04.607Z,23.6
2022-12-29T08:16:04.638Z,23.6
2022-12-29T08:17:04.605Z,23.7
2022-12-29T08:18:04.587Z,23.7
2022-12-29T08:19:04.643Z,23.7
2022-12-29T08:20:04.575Z,23.7
2022-12-29T08:21:04.641Z,23.7
2022-12-29T08:22:04.601Z,23.7
2022-12-29T08:23:04.637Z,23.8
2022-12-29T08:24:04.593Z,23.8
2022-12-29T08:25:04.628Z,23.8
2022-12-29T08:26:04.579Z,23.8
2022-12-29T08:27:13.152Z,23.8
2022-12-29T08:28:04.585Z,23.8
2022-12-29T08:29:04.606Z,23.8
2022-12-29T08:30:04.603Z,23.8
2022-12-29T08:31:04.721Z,23.8
2022-12-29T08:32:05.648Z,23.8
2022-12-29T08:33:04.634Z,23.8
2022-12-29T08:34:04.587Z,23.7
2022-12-29T08:35:04.617Z,23.7
2022-12-29T08:36:04.590Z,23.8
2022-12-29T08:37:04.636Z,23.8
2022-12-29T08:38:04.604Z,23.8
2022-12-29T08:39:04.664Z,23.8
2022-12-29T08:40:04.644Z,23.8
2022-12-29T08:41:04.602Z,23.8
2022-12-29T08:42:04.604Z,23.8
2022-12-29T08:43:04.640Z,23.8
2022-12-29T08:44:04.849Z,23.8
2022-12-29T08:45:04.633Z,23.8
2022-12-29T08:46:04.632Z,23.8
2022-12-29T08:47:04.701Z,23.8
2022-12-29T08:48:05.662Z,23.8
2022-12-29T08:49:04.647Z,23.8
2022-12-29T08:50:04.587Z,23.8
2022-12-29T08:51:04.628Z,23.8
2022-12-29T08:52:04.596Z,23.8
2022-12-29T08:53:04.647Z,23.8
2022-12-29T08:54:04.588Z,23.8
2022-12-29T08:55:04.662Z,23.8
2022-12-29T08:56:05.763Z,23.9
2022-12-29T08:57:04.635Z,23.9
2022-12-29T08:58:04.615Z,23.9
2022-12-29T08:59:04.636Z,23.9
2022-12-29T09:00:04.609Z,24.0
2022-12-29T09:01:04.674Z,24.0
2022-12-29T09:02:04.668Z,24.0
2022-12-29T09:03:04.854Z,24.0
2022-12-29T09:04:14.945Z,24.0
2022-12-29T09:05:44.816Z,23.8
2022-12-29T09:06:04.501Z,23.9
2022-12-29T09:07:04.579Z,24.0
2022-12-29T09:08:04.506Z,24.0
2022-12-29T09:09:04.547Z,24.0
2022-12-29T09:10:04.504Z,24.0
2022-12-29T09:11:04.513Z,24.0
2022-12-29T09:12:04.513Z,24.0
2022-12-29T09:13:04.568Z,24.0
2022-12-29T09:14:04.489Z,24.0
2022-12-29T09:15:04.533Z,24.0
2022-12-29T09:16:04.569Z,24.0
2022-12-29T09:17:04.534Z,24.0
2022-12-29T09:18:04.507Z,24.0
2022-12-29T09:19:04.587Z,24.0
2022-12-29T09:20:04.504Z,24.0
2022-12-29T09:21:04.541Z,24.0
2022-12-29T09:22:04.523Z,24.0
2022-12-29T09:23:04.538Z,24.0
2022-12-29T09:24:04.515Z,24.1
2022-12-29T09:25:04.561Z,24.1
2022-12-29T09:26:04.534Z,24.1
2022-12-29T09:27:04.534Z,24.1
2022-12-29T09:28:04.509Z,24.1
2022-12-29T09:29:04.546Z,24.2
2022-12-29T09:30:04.504Z,24.2
2022-12-29T09:31:04.605Z,24.2
2022-12-29T09:32:07.619Z,24.2
2022-12-29T09:33:04.549Z,24.2
2022-12-29T09:34:04.521Z,24.2
2022-12-29T09:35:04.568Z,24.2
2022-12-29T09:36:04.575Z,24.2
2022-12-29T09:37:04.574Z,24.2
2022-12-29T09:38:04.512Z,24.2
2022-12-29T09:39:04.557Z,24.3
2022-12-29T09:40:04.520Z,24.3
2022-12-29T09:41:04.576Z,24.3
2022-12-29T09:42:04.536Z,24.3
2022-12-29T09:43:04.596Z,24.3
2022-12-29T09:44:04.503Z,24.3
2022-12-29T09:45:04.540Z,24.3
2022-12-29T09:46:04.523Z,24.4
2022-12-29T09:47:04.609Z,24.4
2022-12-29T09:48:09.658Z,24.4
2022-12-29T09:49:04.612Z,24.4
2022-12-29T09:50:04.534Z,24.4
2022-12-29T09:51:04.581Z,24.4
2022-12-29T09:52:04.532Z,24.3
2022-12-29T09:53:04.547Z,24.3
2022-12-29T09:54:04.549Z,24.3
2022-12-29T09:55:09.136Z,24.3
2022-12-29T09:56:04.523Z,24.2
2022-12-29T09:57:04.575Z,24.2
2022-12-29T09:58:04.536Z,24.3
2022-12-29T09:59:04.600Z,24.3
2022-12-29T10:00:04.528Z,24.3
2022-12-29T10:01:04.639Z,24.4
2022-12-29T10:02:04.667Z,24.4
2022-12-29T10:03:04.638Z,24.4
2022-12-29T10:04:04.564Z,24.4
2022-12-29T10:05:04.619Z,24.4
2022-12-29T10:06:04.526Z,24.5
2022-12-29T10:07:28.446Z,24.5
2022-12-29T10:08:04.512Z,24.4
2022-12-29T10:09:04.545Z,24.5
2022-12-29T10:10:04.512Z,24.5
2022-12-29T10:11:04.550Z,24.5
2022-12-29T10:13:37.483Z,24.2
2022-12-29T10:14:04.179Z,24.4
2022-12-29T10:15:04.150Z,24.4
2022-12-29T10:16:04.261Z,24.5
2022-12-29T10:17:04.148Z,24.5
2022-12-29T10:18:04.212Z,24.5
2022-12-29T10:19:04.183Z,24.5
2022-12-29T10:20:04.270Z,24.5
2022-12-29T10:21:04.157Z,24.5
2022-12-29T10:22:04.186Z,24.5
2022-12-29T10:23:04.152Z,24.5
2022-12-29T10:24:04.183Z,24.5
2022-12-29T10:25:04.210Z,24.5
2022-12-29T10:26:04.211Z,24.5
2022-12-29T10:27:04.147Z,24.5
2022-12-29T10:28:04.246Z,24.6
2022-12-29T10:29:04.157Z,24.6
2022-12-29T10:30:04.206Z,24.6
2022-12-29T10:31:08.662Z,24.6
2022-12-29T10:32:04.224Z,24.6
2022-12-29T10:33:04.149Z,24.6
2022-12-29T10:34:04.214Z,24.6
2022-12-29T10:35:04.160Z,24.6
2022-12-29T10:36:04.185Z,24.6
2022-12-29T10:37:04.203Z,24.7
2022-12-29T10:38:04.185Z,24.7
2022-12-29T10:39:04.157Z,24.6
2022-12-29T10:40:04.176Z,24.6
2022-12-29T10:41:04.159Z,24.5
2022-12-29T10:42:04.174Z,24.5
2022-12-29T10:43:04.204Z,24.5
2022-12-29T10:44:04.173Z,24.5
2022-12-29T10:45:04.211Z,24.5
2022-12-29T10:46:04.231Z,24.5
2022-12-29T10:47:04.190Z,24.5
2022-12-29T10:48:04.247Z,24.5
2022-12-29T10:49:04.210Z,24.4
2022-12-29T10:50:04.225Z,24.3
2022-12-29T10:51:04.204Z,24.3
2022-12-29T10:52:04.180Z,24.3
2022-12-29T10:53:04.567Z,24.3
2022-12-29T10:54:05.803Z,24.3
2022-12-29T10:55:04.321Z,24.2
2022-12-29T10:56:04.245Z,24.2
2022-12-29T10:57:04.159Z,24.2
2022-12-29T10:58:04.193Z,24.2
2022-12-29T10:59:04.216Z,24.2
2022-12-29T11:00:04.167Z,24.2
2022-12-29T11:01:04.330Z,24.2
2022-12-29T11:02:04.306Z,24.1
2022-12-29T11:03:04.393Z,24.1
2022-12-29T11:04:04.176Z,24.1
2022-12-29T11:05:04.304Z,24.1
2022-12-29T11:06:04.346Z,24.1
2022-12-29T11:07:30.689Z,24.0
2022-12-29T11:08:04.364Z,24.1
2022-12-29T11:09:05.117Z,24.1
2022-12-29T11:10:04.346Z,24.0
2022-12-29T11:11:04.466Z,23.9
2022-12-29T11:12:04.350Z,23.8
2022-12-29T11:13:04.424Z,23.8
2022-12-29T11:14:04.353Z,23.8
2022-12-29T11:15:04.370Z,23.8
2022-12-29T11:16:04.382Z,23.8
2022-12-29T11:17:04.385Z,23.7
2022-12-29T11:18:04.352Z,23.8
2022-12-29T11:19:04.442Z,23.8
2022-12-29T11:20:04.386Z,23.8
2022-12-29T11:21:04.594Z,23.8
2022-12-29T11:22:04.367Z,23.8
2022-12-29T11:23:04.561Z,23.8
2022-12-29T11:24:04.427Z,23.8
2022-12-29T11:25:04.587Z,23.8
2022-12-29T11:26:04.607Z,23.8
2022-12-29T11:27:04.370Z,23.8
2022-12-29T11:28:04.339Z,23.8
2022-12-29T11:29:04.491Z,23.8
2022-12-29T11:30:04.595Z,23.9
2022-12-29T11:31:04.623Z,23.9
2022-12-29T11:32:04.378Z,23.9
2022-12-29T11:33:04.389Z,23.9
2022-12-29T11:34:05.337Z,23.9
2022-12-29T11:35:04.384Z,23.8
2022-12-29T11:36:04.454Z,23.8
2022-12-29T11:37:04.438Z,23.7
2022-12-29T11:38:04.353Z,23.7
2022-12-29T11:39:07.693Z,23.7
2022-12-29T11:40:04.401Z,23.7
2022-12-29T11:41:04.384Z,23.7
2022-12-29T11:42:04.361Z,23.7
2022-12-29T11:43:04.452Z,23.7
2022-12-29T11:44:04.412Z,23.6
2022-12-29T11:45:10.512Z,23.6
2022-12-29T11:46:04.513Z,23.6
2022-12-29T11:47:04.387Z,23.6
2022-12-29T11:48:04.387Z,23.6
2022-12-29T11:49:04.382Z,23.6
2022-12-29T11:50:04.384Z,23.7
2022-12-29T11:51:04.427Z,23.7
2022-12-29T11:52:04.379Z,23.7
2022-12-29T11:53:04.372Z,23.7
2022-12-29T11:54:04.388Z,23.7
2022-12-29T11:55:04.388Z,23.7
2022-12-29T11:56:04.391Z,23.7
2022-12-29T11:57:04.382Z,23.7
2022-12-29T11:58:04.401Z,23.7
2022-12-29T11:59:04.357Z,23.7
2022-12-29T12:00:04.416Z,23.7
2022-12-29T12:01:04.451Z,23.7
2022-12-29T12:02:04.515Z,23.7
2022-12-29T12:03:04.505Z,23.8
2022-12-29T12:04:04.450Z,23.8
2022-12-29T12:05:04.365Z,23.8
2022-12-29T12:06:04.396Z,23.8
2022-12-29T12:07:04.462Z,23.8
2022-12-29T12:08:04.396Z,23.8
2022-12-29T12:09:04.404Z,23.8
2022-12-29T12:10:07.726Z,23.9
2022-12-29T12:11:04.395Z,23.8
2022-12-29T12:12:04.414Z,23.8
2022-12-29T12:13:04.391Z,23.8
2022-12-29T12:14:04.417Z,23.8
2022-12-29T12:15:04.365Z,23.8
2022-12-29T12:17:37.846Z,23.5
2022-12-29T12:18:06.306Z,23.7
2022-12-29T12:19:04.494Z,23.7
2022-12-29T12:20:04.484Z,23.8
2022-12-29T12:21:04.469Z,23.8
2022-12-29T12:22:04.491Z,23.9
2022-12-29T12:23:04.472Z,23.9
2022-12-29T12:24:05.446Z,24.0
2022-12-29T12:25:04.495Z,23.9
2022-12-29T12:26:04.569Z,23.9
2022-12-29T12:27:04.562Z,23.9
2022-12-29T12:28:04.569Z,23.9
2022-12-29T12:29:04.536Z,23.9
2022-12-29T12:30:04.609Z,23.9
2022-12-29T12:31:04.586Z,23.8
2022-12-29T12:32:04.559Z,23.8
2022-12-29T12:33:04.468Z,23.8
2022-12-29T12:34:04.556Z,23.8
2022-12-29T12:35:04.495Z,23.8
2022-12-29T12:36:04.511Z,23.8
2022-12-29T12:37:04.512Z,23.8
2022-12-29T12:38:04.508Z,23.8
2022-12-29T12:39:04.480Z,23.8
2022-12-29T12:40:04.516Z,23.9
2022-12-29T12:41:04.493Z,23.9
2022-12-29T12:42:04.523Z,23.8
2022-12-29T12:43:04.505Z,23.8
2022-12-29T12:44:04.495Z,23.8
2022-12-29T12:45:04.592Z,23.8
2022-12-29T12:46:04.518Z,23.8
2022-12-29T12:47:04.587Z,23.8
2022-12-29T12:48:04.508Z,23.8
2022-12-29T12:49:04.517Z,23.8
2022-12-29T12:50:04.516Z,23.8
2022-12-29T12:51:04.523Z,23.8
2022-12-29T12:52:05.574Z,23.8
2022-12-29T12:53:04.481Z,23.8
2022-12-29T12:54:04.542Z,23.8
2022-12-29T12:55:04.608Z,23.8
2022-12-29T12:56:04.510Z,23.8
2022-12-29T12:57:04.514Z,23.8
2022-12-29T12:58:04.587Z,23.8
2022-12-29T12:59:09.466Z,23.8
2022-12-29T13:00:04.529Z,23.7
2022-12-29T13:01:04.600Z,23.7
2022-12-29T13:02:04.607Z,23.7
2022-12-29T13:04:35.404Z,23.5
2022-12-29T13:05:04.104Z,23.6
2022-12-29T13:06:04.145Z,23.7
2022-12-29T13:07:04.184Z,23.7
2022-12-29T13:08:04.193Z,23.7
2022-12-29T13:09:04.147Z,23.7
2022-12-29T13:10:04.148Z,23.7
2022-12-29T13:11:04.290Z,23.7
2022-12-29T13:12:04.162Z,23.7
2022-12-29T13:13:04.248Z,23.7
2022-12-29T13:14:04.143Z,23.7
2022-12-29T13:15:04.156Z,23.7
2022-12-29T13:16:06.346Z,23.7
2022-12-29T13:17:04.166Z,23.6
2022-12-29T13:18:04.151Z,23.6
2022-12-29T13:19:04.267Z,23.6
2022-12-29T13:20:04.141Z,23.6
2022-12-29T13:21:04.124Z,23.6
2022-12-29T13:22:06.919Z,23.6
2022-12-29T13:23:04.121Z,23.6
2022-12-29T13:24:05.179Z,23.6
2022-12-29T13:25:04.256Z,23.5